Time;durP1;ratioP1;P1;durP2;ratioP2;P2;SDS_P1;SDS_P2;PMS_P1;PMS_P2;Temp;Humidity;BMP_temperature;BMP_pressure;BME280_temperature;BME280_humidity;BME280_pressure;Samples;Min_cycle;Max_cycle;Signal;HPM_P1;HPM_P2
2023/09/15 00:01:32;;;;;;;6.83;5.00;;;13.80;99.90;;;;;;4968086;28;20515;-58
2023/09/15 00:03:58;;;;;;;6.37;5.17;;;13.80;99.90;;;;;;4966714;28;20900;-57
2023/09/15 00:06:24;;;;;;;7.30;5.80;;;13.80;99.90;;;;;;4967764;28;20448;-57
2023/09/15 00:08:50;;;;;;;7.50;4.83;;;13.80;99.90;;;;;;4967819;28;20947;-60
2023/09/15 00:11:16;;;;;;;8.10;4.80;;;13.80;99.90;;;;;;4964791;28;20727;-58
2023/09/15 00:13:43;;;;;;;11.07;5.83;;;13.70;99.90;;;;;;4967400;28;20704;-58
2023/09/15 00:16:09;;;;;;;8.93;5.03;;;13.70;99.90;;;;;;4966943;28;20444;-58
2023/09/15 00:18:35;;;;;;;7.97;4.57;;;13.70;99.90;;;;;;4967881;28;20429;-57
2023/09/15 00:21:01;;;;;;;8.07;5.17;;;13.70;99.90;;;;;;4967835;28;20456;-58
2023/09/15 00:23:27;;;;;;;8.70;5.47;;;13.60;99.90;;;;;;4967984;28;20190;-58
2023/09/15 00:25:54;;;;;;;13.83;5.90;;;13.60;99.90;;;;;;4969852;28;20189;-58
2023/09/15 00:28:20;;;;;;;8.67;5.00;;;13.60;99.90;;;;;;4968341;28;20460;-58
2023/09/15 00:30:49;;;;;;;9.07;4.90;;;13.60;99.90;;;;;;4967482;28;20449;-58
2023/09/15 00:33:15;;;;;;;7.17;5.30;;;13.60;99.90;;;;;;4968016;28;20182;-58
2023/09/15 00:35:41;;;;;;;6.17;4.53;;;13.60;99.90;;;;;;4969875;28;20432;-58
2023/09/15 00:38:07;;;;;;;6.57;5.40;;;13.50;99.90;;;;;;4960466;28;20491;-58
2023/09/15 00:40:32;;;;;;;5.43;4.67;;;13.50;99.90;;;;;;4966879;28;20231;-57
2023/09/15 00:42:58;;;;;;;6.10;5.03;;;13.50;99.90;;;;;;4962957;28;20199;-58
2023/09/15 00:45:25;;;;;;;6.10;4.97;;;13.50;99.90;;;;;;4963628;28;20255;-57
2023/09/15 00:47:58;;;;;;;10.23;4.90;;;13.40;99.90;;;;;;4960089;28;20221;-57
2023/09/15 00:50:31;;;;;;;6.53;5.10;;;13.40;99.90;;;;;;4962475;28;20433;-58
2023/09/15 00:53:01;;;;;;;6.77;5.50;;;13.40;99.90;;;;;;4966346;28;20429;-58
2023/09/15 00:55:29;;;;;;;7.97;5.20;;;13.40;99.90;;;;;;4966683;28;20436;-57
2023/09/15 00:57:56;;;;;;;9.40;5.33;;;13.40;99.90;;;;;;4968353;28;20464;-57
2023/09/15 01:00:22;;;;;;;9.00;5.80;;;13.40;99.90;;;;;;4967283;28;20597;-58
2023/09/15 01:02:49;;;;;;;6.43;4.60;;;13.30;99.90;;;;;;4966079;28;20531;-57
2023/09/15 01:05:22;;;;;;;7.37;5.30;;;13.30;99.90;;;;;;4962371;28;20552;-57
2023/09/15 01:07:52;;;;;;;6.30;5.57;;;13.30;99.90;;;;;;4965572;28;20426;-58
2023/09/15 01:10:21;;;;;;;9.47;5.77;;;13.30;99.90;;;;;;4965101;28;20468;-57
2023/09/15 01:12:48;;;;;;;10.33;5.40;;;13.30;99.90;;;;;;4966258;28;20958;-58
2023/09/15 01:15:16;;;;;;;9.50;5.00;;;13.30;99.90;;;;;;4962027;28;20437;-58
2023/09/15 01:18:14;;;;;;;6.97;5.60;;;13.30;99.90;;;;;;4967703;28;20460;-58
2023/09/15 01:20:53;;;;;;;7.37;5.40;;;13.30;99.90;;;;;;4964146;28;20461;-57
2023/09/15 01:23:45;;;;;;;6.87;5.37;;;13.30;99.90;;;;;;4967436;28;20432;-57
2023/09/15 01:26:44;;;;;;;9.13;5.53;;;13.20;99.90;;;;;;4952248;28;20492;-59
2023/09/15 01:29:31;;;;;;;8.73;5.33;;;13.20;99.90;;;;;;4968114;28;20787;-58
2023/09/15 01:31:59;;;;;;;8.00;4.97;;;13.20;99.90;;;;;;4965632;28;20461;-58
2023/09/15 01:34:24;;;;;;;6.10;5.30;;;13.10;99.90;;;;;;4968078;28;20432;-58
2023/09/15 01:36:53;;;;;;;7.33;5.10;;;13.10;99.90;;;;;;4964936;28;20437;-58
2023/09/15 01:39:19;;;;;;;7.03;5.03;;;13.10;99.90;;;;;;4963814;28;20178;-57
2023/09/15 01:41:45;;;;;;;11.10;5.43;;;13.10;99.90;;;;;;4968893;28;20514;-57
2023/09/15 01:44:10;;;;;;;7.73;5.40;;;13.10;99.90;;;;;;4966912;28;20205;-58
2023/09/15 01:46:36;;;;;;;6.80;5.70;;;13.10;99.90;;;;;;4962838;28;20686;-57
2023/09/15 01:49:02;;;;;;;9.10;5.43;;;13.00;99.90;;;;;;4958353;28;20185;-58
2023/09/15 01:51:30;;;;;;;8.80;6.03;;;13.00;99.90;;;;;;4963535;28;20224;-58
2023/09/15 01:53:56;;;;;;;8.30;6.10;;;13.00;99.90;;;;;;4965170;28;20433;-57
2023/09/15 01:56:24;;;;;;;10.40;5.73;;;13.00;99.90;;;;;;4962486;28;20441;-57
2023/09/15 01:58:50;;;;;;;9.47;5.87;;;12.90;99.90;;;;;;4964866;28;20200;-57
2023/09/15 02:01:15;;;;;;;8.00;5.03;;;13.00;99.90;;;;;;4961756;28;20464;-57
2023/09/15 02:03:41;;;;;;;6.73;5.20;;;12.90;99.90;;;;;;4963937;28;20198;-58
2023/09/15 02:06:07;;;;;;;9.13;5.30;;;12.90;99.90;;;;;;4965058;28;20714;-58
2023/09/15 02:08:32;;;;;;;6.33;5.00;;;12.90;99.90;;;;;;4966957;28;20309;-58
2023/09/15 02:10:59;;;;;;;8.50;5.30;;;12.90;99.90;;;;;;4963393;28;20445;-58
2023/09/15 02:13:24;;;;;;;6.20;5.13;;;12.90;99.90;;;;;;4964935;28;20675;-58
2023/09/15 02:15:54;;;;;;;8.67;5.90;;;12.90;99.90;;;;;;4965202;28;20437;-58
2023/09/15 02:18:20;;;;;;;9.73;5.70;;;12.90;99.90;;;;;;4964723;28;20182;-58
2023/09/15 02:20:54;;;;;;;9.10;6.00;;;12.90;99.90;;;;;;4963125;28;20444;-59
2023/09/15 02:23:19;;;;;;;8.00;5.03;;;12.90;99.90;;;;;;4964948;28;20429;-58
2023/09/15 02:25:45;;;;;;;8.90;5.60;;;12.80;99.90;;;;;;4959013;28;20430;-58
2023/09/15 02:28:10;;;;;;;7.80;5.70;;;12.80;99.90;;;;;;4965192;28;20177;-58
2023/09/15 02:30:37;;;;;;;6.20;5.23;;;12.80;99.90;;;;;;4963728;28;20358;-59
2023/09/15 02:33:03;;;;;;;8.53;5.33;;;12.70;99.90;;;;;;4965048;28;20261;-58
2023/09/15 02:35:29;;;;;;;6.60;5.10;;;12.80;99.90;;;;;;4963939;28;20529;-58
2023/09/15 02:37:54;;;;;;;8.47;5.50;;;12.70;99.90;;;;;;4964787;28;20174;-58
2023/09/15 02:40:24;;;;;;;7.60;6.27;;;12.70;99.90;;;;;;4965996;28;20224;-58
2023/09/15 02:42:50;;;;;;;10.13;5.37;;;12.70;99.90;;;;;;4968062;28;20174;-58
2023/09/15 02:45:16;;;;;;;8.90;5.90;;;12.70;99.90;;;;;;4967920;28;21191;-58
2023/09/15 02:47:42;;;;;;;6.20;5.20;;;12.70;99.90;;;;;;4965650;28;20596;-57
2023/09/15 02:50:08;;;;;;;10.23;5.40;;;12.70;99.90;;;;;;4967317;28;20429;-58
2023/09/15 02:52:34;;;;;;;8.27;6.00;;;12.70;99.90;;;;;;4963146;28;20233;-59
2023/09/15 02:55:00;;;;;;;8.30;6.37;;;12.70;99.90;;;;;;4967958;28;20193;-58
2023/09/15 02:57:26;;;;;;;8.87;6.07;;;12.70;99.90;;;;;;4967409;28;21265;-58
2023/09/15 02:59:54;;;;;;;8.57;5.90;;;12.70;99.90;;;;;;4968015;28;20174;-59
2023/09/15 03:02:21;;;;;;;9.67;6.80;;;12.70;99.90;;;;;;4967371;28;20309;-58
2023/09/15 03:04:47;;;;;;;10.50;6.80;;;12.70;99.90;;;;;;4965185;28;20460;-57
2023/09/15 03:07:13;;;;;;;8.20;6.20;;;12.70;99.90;;;;;;4968485;28;20437;-57
2023/09/15 03:09:39;;;;;;;10.40;6.40;;;12.70;99.90;;;;;;4966494;28;20462;-58
2023/09/15 03:12:05;;;;;;;11.37;6.47;;;12.70;99.90;;;;;;4965304;28;21029;-58
2023/09/15 03:14:31;;;;;;;12.03;6.17;;;12.70;99.90;;;;;;4969904;28;20181;-58
2023/09/15 03:16:56;;;;;;;8.33;6.30;;;12.70;99.90;;;;;;4971054;28;20245;-58
2023/09/15 03:19:22;;;;;;;9.33;6.87;;;12.70;99.90;;;;;;4970119;28;20863;-58
2023/09/15 03:21:48;;;;;;;8.10;6.57;;;12.70;99.90;;;;;;4969863;28;20194;-59
2023/09/15 03:24:14;;;;;;;9.17;6.03;;;12.60;99.90;;;;;;4969862;28;20487;-58
2023/09/15 03:26:40;;;;;;;8.93;6.47;;;12.60;99.90;;;;;;4968249;28;20687;-58
2023/09/15 03:29:06;;;;;;;8.93;6.80;;;12.60;99.90;;;;;;4967426;28;20170;-59
2023/09/15 03:31:31;;;;;;;7.77;6.97;;;12.70;99.90;;;;;;4971643;28;20460;-58
2023/09/15 03:33:57;;;;;;;8.17;5.73;;;12.60;99.90;;;;;;4967315;28;20174;-58
2023/09/15 03:36:23;;;;;;;10.90;8.17;;;12.60;99.90;;;;;;4966851;28;20181;-58
2023/09/15 03:38:48;;;;;;;8.80;6.33;;;12.60;99.90;;;;;;4965307;28;20666;-58
2023/09/15 03:41:14;;;;;;;10.57;6.87;;;12.60;99.90;;;;;;4969505;28;20194;-59
2023/09/15 03:43:40;;;;;;;9.43;6.73;;;12.60;99.90;;;;;;4969760;28;20207;-58
2023/09/15 03:46:06;;;;;;;12.13;7.27;;;12.60;99.90;;;;;;4970367;28;20528;-58
2023/09/15 03:48:32;;;;;;;12.77;6.70;;;12.50;99.90;;;;;;4961781;28;20242;-58
2023/09/15 03:50:58;;;;;;;12.20;7.00;;;12.60;99.90;;;;;;4968175;28;20186;-58
2023/09/15 03:53:23;;;;;;;15.97;6.63;;;12.50;99.90;;;;;;4963923;28;20445;-59
2023/09/15 03:55:49;;;;;;;9.43;6.70;;;12.50;99.90;;;;;;4965827;28;20198;-58
2023/09/15 03:58:15;;;;;;;9.20;6.07;;;12.50;99.90;;;;;;4964381;28;20841;-58
2023/09/15 04:00:41;;;;;;;9.33;5.93;;;12.50;99.90;;;;;;4965504;28;20209;-58
2023/09/15 04:03:06;;;;;;;11.40;6.80;;;12.50;99.90;;;;;;4956315;28;20430;-58
2023/09/15 04:05:32;;;;;;;7.77;6.47;;;12.40;99.90;;;;;;4962632;28;20594;-57
2023/09/15 04:07:58;;;;;;;13.33;7.00;;;12.50;99.90;;;;;;4962555;28;21237;-56
2023/09/15 04:10:24;;;;;;;10.40;6.57;;;12.50;99.90;;;;;;4959146;28;20229;-58
2023/09/15 04:12:49;;;;;;;9.40;6.83;;;12.40;99.90;;;;;;4966564;28;20248;-56
2023/09/15 04:15:15;;;;;;;8.80;6.77;;;12.40;99.90;;;;;;4965354;28;20188;-57
2023/09/15 04:17:41;;;;;;;9.00;6.63;;;12.40;99.90;;;;;;4970046;28;20194;-59
2023/09/15 04:20:09;;;;;;;8.53;6.77;;;12.40;99.90;;;;;;4964219;28;21070;-59
2023/09/15 04:22:40;;;;;;;9.57;6.83;;;12.40;99.90;;;;;;4969265;28;22693;-59
2023/09/15 04:25:08;;;;;;;10.70;7.70;;;12.40;99.90;;;;;;4966680;28;20464;-59
2023/09/15 04:27:34;;;;;;;10.90;7.17;;;12.40;99.90;;;;;;4959011;28;20433;-58
2023/09/15 04:30:02;;;;;;;10.47;7.20;;;12.40;99.90;;;;;;4959055;28;20433;-58
2023/09/15 04:32:28;;;;;;;9.90;6.47;;;12.40;99.90;;;;;;4962896;28;20473;-60
2023/09/15 04:34:54;;;;;;;10.50;7.90;;;12.40;99.90;;;;;;4940272;28;20987;-60
2023/09/15 04:37:20;;;;;;;8.47;6.60;;;12.40;99.90;;;;;;4953013;28;20301;-59
2023/09/15 04:39:49;;;;;;;10.30;6.70;;;12.40;99.90;;;;;;4960691;28;20429;-60
2023/09/15 04:42:15;;;;;;;10.90;6.97;;;12.40;99.90;;;;;;4954281;28;20556;-60
2023/09/15 04:44:41;;;;;;;13.67;7.53;;;12.40;99.90;;;;;;4961524;28;21017;-60
2023/09/15 04:47:06;;;;;;;10.73;7.27;;;12.40;99.90;;;;;;4958968;28;20437;-64
2023/09/15 04:49:32;;;;;;;10.80;7.37;;;12.40;99.90;;;;;;4959041;28;20190;-60
2023/09/15 04:51:58;;;;;;;10.70;7.50;;;12.40;99.90;;;;;;4960364;28;20224;-60
2023/09/15 04:54:25;;;;;;;10.13;8.07;;;12.40;99.90;;;;;;4966245;28;20676;-60
2023/09/15 04:56:50;;;;;;;12.73;8.40;;;12.40;99.90;;;;;;4963936;28;20185;-60
2023/09/15 04:59:16;;;;;;;14.80;8.23;;;12.30;99.90;;;;;;4965614;28;20457;-60
2023/09/15 05:01:46;;;;;;;10.70;7.40;;;12.30;99.90;;;;;;4961294;28;20198;-60
2023/09/15 05:04:14;;;;;;;11.70;7.77;;;12.30;99.90;;;;;;4963980;28;20221;-60
2023/09/15 05:06:40;;;;;;;14.90;8.27;;;12.30;99.90;;;;;;4962324;28;21494;-59
2023/09/15 05:09:06;;;;;;;16.27;9.30;;;12.30;99.90;;;;;;4965756;28;20445;-60
2023/09/15 05:11:31;;;;;;;17.43;8.50;;;12.30;99.90;;;;;;4962044;28;20194;-60
2023/09/15 05:13:57;;;;;;;14.33;7.70;;;12.30;99.90;;;;;;4963399;28;20451;-60
2023/09/15 05:16:23;;;;;;;10.60;7.67;;;12.30;99.90;;;;;;4966381;28;20181;-60
2023/09/15 05:18:49;;;;;;;13.50;9.07;;;12.30;99.90;;;;;;4970286;28;20588;-60
2023/09/15 05:21:15;;;;;;;17.97;8.33;;;12.40;99.90;;;;;;4982054;28;20198;-60
2023/09/15 05:23:40;;;;;;;11.50;8.20;;;12.40;99.90;;;;;;4968229;28;20591;-60
2023/09/15 05:26:07;;;;;;;9.63;6.63;;;12.40;99.90;;;;;;4969931;28;20180;-60
2023/09/15 05:28:33;;;;;;;12.90;8.10;;;12.40;99.90;;;;;;4970049;28;20615;-60
2023/09/15 05:30:59;;;;;;;13.40;7.30;;;12.40;99.90;;;;;;4981108;28;20468;-60
2023/09/15 05:33:25;;;;;;;11.83;7.73;;;12.50;99.90;;;;;;4968538;28;20273;-60
2023/09/15 05:35:55;;;;;;;13.83;7.97;;;12.50;99.90;;;;;;4975967;28;20536;-60
2023/09/15 05:38:20;;;;;;;9.90;7.10;;;12.40;99.90;;;;;;4967059;28;20484;-59
2023/09/15 05:40:46;;;;;;;14.77;8.13;;;12.50;99.90;;;;;;4963934;28;20457;-60
2023/09/15 05:43:11;;;;;;;11.97;8.70;;;12.50;99.90;;;;;;4968731;28;20185;-60
2023/09/15 05:45:37;;;;;;;14.60;8.33;;;12.60;99.90;;;;;;4969315;28;20221;-60
2023/09/15 05:48:04;;;;;;;15.03;8.20;;;12.60;99.90;;;;;;4963275;28;20178;-60
2023/09/15 05:50:30;;;;;;;11.13;7.67;;;12.60;99.90;;;;;;4963194;28;20537;-60
2023/09/15 05:52:55;;;;;;;11.93;8.00;;;12.70;99.90;;;;;;4972292;28;20709;-60
2023/09/15 05:55:21;;;;;;;11.67;6.90;;;12.70;99.90;;;;;;4962939;28;20201;-60
2023/09/15 05:57:46;;;;;;;13.83;8.17;;;12.70;99.90;;;;;;4961037;28;20186;-60
2023/09/15 06:00:12;;;;;;;12.80;8.40;;;12.80;99.90;;;;;;4963246;28;20178;-60
2023/09/15 06:02:38;;;;;;;11.30;8.20;;;12.80;99.90;;;;;;4965243;28;20201;-60
2023/09/15 06:05:04;;;;;;;10.67;7.43;;;12.90;99.90;;;;;;4966704;28;20205;-60
2023/09/15 06:07:29;;;;;;;11.17;7.70;;;12.90;99.90;;;;;;4964521;28;20285;-60
2023/09/15 06:09:55;;;;;;;11.37;7.17;;;12.90;99.90;;;;;;4966501;28;21026;-61
2023/09/15 06:12:21;;;;;;;11.40;7.53;;;13.00;99.90;;;;;;4965116;28;20200;-60
2023/09/15 06:14:46;;;;;;;10.20;7.63;;;13.00;99.90;;;;;;4967831;28;20311;-61
2023/09/15 06:17:12;;;;;;;9.73;7.17;;;13.00;99.90;;;;;;4966468;28;20770;-60
2023/09/15 06:19:38;;;;;;;10.47;7.87;;;13.10;99.90;;;;;;4967953;28;20272;-60
2023/09/15 06:22:05;;;;;;;15.23;7.87;;;13.10;99.90;;;;;;4964374;28;20216;-60
2023/09/15 06:24:30;;;;;;;13.20;7.90;;;13.20;99.90;;;;;;4960269;28;20218;-60
2023/09/15 06:26:56;;;;;;;12.13;7.53;;;13.20;99.90;;;;;;4962630;28;20484;-60
2023/09/15 06:29:21;;;;;;;10.40;7.27;;;13.20;99.90;;;;;;4964549;28;20544;-60
2023/09/15 06:31:48;;;;;;;11.13;7.90;;;13.30;99.90;;;;;;4969715;28;20232;-60
2023/09/15 06:34:13;;;;;;;13.13;7.83;;;13.30;99.90;;;;;;4969699;28;20292;-61
2023/09/15 06:36:39;;;;;;;12.80;8.50;;;13.40;99.90;;;;;;4967667;28;20997;-61
2023/09/15 06:39:07;;;;;;;14.90;8.90;;;13.50;99.90;;;;;;4983143;28;20235;-61
2023/09/15 06:41:32;;;;;;;15.00;8.90;;;13.50;99.90;;;;;;4974443;28;20457;-61
2023/09/15 06:43:59;;;;;;;43.03;11.73;;;13.60;99.90;;;;;;4971591;28;20492;-61
2023/09/15 06:46:25;;;;;;;41.73;12.23;;;13.70;99.90;;;;;;4976382;28;20231;-61
2023/09/15 06:48:50;;;;;;;42.03;10.67;;;13.70;99.90;;;;;;4969985;28;20425;-60
2023/09/15 06:51:16;;;;;;;26.90;9.50;;;13.80;99.90;;;;;;4970112;28;20488;-61
2023/09/15 06:53:42;;;;;;;23.77;9.67;;;13.90;99.90;;;;;;4968999;28;20659;-61
2023/09/15 06:56:07;;;;;;;15.30;9.50;;;14.00;99.90;;;;;;4962173;28;20178;-61
2023/09/15 06:58:33;;;;;;;22.03;10.43;;;14.00;99.90;;;;;;4964479;28;20736;-60
2023/09/15 07:00:58;;;;;;;17.57;10.83;;;14.10;99.90;;;;;;4968312;28;20206;-61
2023/09/15 07:03:26;;;;;;;21.63;10.87;;;14.20;99.90;;;;;;4968591;28;20186;-61
2023/09/15 07:05:52;;;;;;;23.70;11.73;;;14.30;99.90;;;;;;4966639;28;20301;-61
2023/09/15 07:08:18;;;;;;;20.27;12.10;;;14.30;99.90;;;;;;4967883;28;20876;-61
2023/09/15 07:10:44;;;;;;;33.00;12.00;;;14.40;99.90;;;;;;4968465;28;20448;-61
2023/09/15 07:13:10;;;;;;;21.73;13.17;;;14.50;99.90;;;;;;4966793;28;20266;-61
2023/09/15 07:15:36;;;;;;;35.73;13.20;;;14.50;99.90;;;;;;4963898;28;20520;-61
2023/09/15 07:18:04;;;;;;;26.20;13.87;;;14.60;99.90;;;;;;4963261;28;20185;-61
2023/09/15 07:20:30;;;;;;;32.33;14.03;;;14.70;99.90;;;;;;4966162;28;20268;-61
2023/09/15 07:22:57;;;;;;;26.07;12.87;;;14.80;99.90;;;;;;4966409;28;20520;-61
2023/09/15 07:25:23;;;;;;;24.70;12.80;;;14.80;99.90;;;;;;4966942;28;21181;-60
2023/09/15 07:27:50;;;;;;;23.50;12.80;;;14.90;99.90;;;;;;4968443;28;20455;-61
2023/09/15 07:30:16;;;;;;;26.67;14.80;;;15.00;99.90;;;;;;4970987;28;20487;-61
2023/09/15 07:32:42;;;;;;;23.50;14.00;;;15.10;99.90;;;;;;4971550;28;20620;-61
2023/09/15 07:35:09;;;;;;;22.63;14.43;;;15.20;99.90;;;;;;4967193;28;20763;-61
2023/09/15 07:37:35;;;;;;;21.87;12.80;;;15.20;99.90;;;;;;4967834;28;20437;-61
2023/09/15 07:40:02;;;;;;;26.23;12.97;;;15.40;99.90;;;;;;4969471;28;21199;-61
2023/09/15 07:42:27;;;;;;;24.73;13.20;;;15.50;99.90;;;;;;4967534;28;20464;-61
2023/09/15 07:44:53;;;;;;;30.20;14.30;;;15.60;99.90;;;;;;4967442;28;21093;-61
2023/09/15 07:47:19;;;;;;;25.90;16.20;;;15.70;99.90;;;;;;4971179;28;20232;-61
2023/09/15 07:49:45;;;;;;;29.27;17.50;;;15.80;99.90;;;;;;4969238;28;20272;-60
2023/09/15 07:52:11;;;;;;;22.13;15.43;;;15.90;99.90;;;;;;4967225;28;21191;-61
2023/09/15 07:54:37;;;;;;;22.00;14.63;;;16.00;99.90;;;;;;4968939;28;20457;-61
2023/09/15 07:57:03;;;;;;;24.70;13.50;;;16.10;99.90;;;;;;4959602;28;20201;-60
2023/09/15 07:59:30;;;;;;;21.47;13.20;;;16.20;99.90;;;;;;4968329;28;20222;-61
2023/09/15 08:01:56;;;;;;;26.03;14.40;;;16.40;99.90;;;;;;4966522;28;20456;-61
2023/09/15 08:04:22;;;;;;;22.17;13.13;;;16.50;99.90;;;;;;4965256;28;22459;-61
2023/09/15 08:06:49;;;;;;;20.07;12.80;;;16.50;99.90;;;;;;4965017;28;20735;-62
2023/09/15 08:09:16;;;;;;;23.80;12.87;;;16.60;99.90;;;;;;4973702;28;20279;-61
2023/09/15 08:11:42;;;;;;;21.93;13.33;;;16.70;99.90;;;;;;4968325;28;20461;-61
2023/09/15 08:14:08;;;;;;;17.27;12.20;;;16.80;99.90;;;;;;4962102;28;20491;-61
2023/09/15 08:16:33;;;;;;;23.00;13.83;;;16.80;99.90;;;;;;4966432;28;20701;-61
2023/09/15 08:18:59;;;;;;;20.43;13.20;;;16.90;99.90;;;;;;4970869;28;20441;-61
2023/09/15 08:21:25;;;;;;;21.30;12.83;;;16.90;99.90;;;;;;4969490;28;20736;-61
2023/09/15 08:23:51;;;;;;;28.20;12.33;;;16.90;99.90;;;;;;4963192;28;20190;-61
2023/09/15 08:26:17;;;;;;;25.73;13.07;;;17.00;99.90;;;;;;4964165;28;20429;-61
2023/09/15 08:28:42;;;;;;;19.20;12.90;;;17.10;99.90;;;;;;4966609;28;20779;-61
2023/09/15 08:31:11;;;;;;;17.30;11.47;;;17.10;99.90;;;;;;4966703;28;20811;-61
2023/09/15 08:33:36;;;;;;;20.13;11.47;;;17.20;99.90;;;;;;4970190;28;20288;-61
2023/09/15 08:36:03;;;;;;;20.60;13.10;;;17.20;99.90;;;;;;4968240;28;20505;-61
2023/09/15 08:38:31;;;;;;;20.73;12.57;;;17.30;99.90;;;;;;4968397;28;20177;-61
2023/09/15 08:41:04;;;;;;;19.63;12.70;;;17.40;99.90;;;;;;4964872;28;20444;-63
2023/09/15 08:43:30;;;;;;;17.20;11.70;;;17.40;99.90;;;;;;4965125;28;20426;-61
2023/09/15 08:45:58;;;;;;;18.93;12.83;;;17.60;99.90;;;;;;4966750;28;21034;-61
2023/09/15 08:48:27;;;;;;;17.17;10.90;;;17.60;99.90;;;;;;4961982;28;20429;-61
2023/09/15 08:50:55;;;;;;;14.40;10.37;;;17.70;99.90;;;;;;4970145;28;20439;-62
2023/09/15 08:53:21;;;;;;;16.63;11.63;;;17.80;99.90;;;;;;4964947;28;20496;-61
2023/09/15 08:55:47;;;;;;;20.03;11.63;;;18.00;99.90;;;;;;4960127;28;20436;-61
2023/09/15 08:58:13;;;;;;;16.00;11.50;;;18.10;99.90;;;;;;4969909;28;20524;-61
2023/09/15 09:00:39;;;;;;;18.23;11.37;;;18.30;99.90;;;;;;4963913;28;20178;-61
2023/09/15 09:03:05;;;;;;;17.23;11.40;;;18.40;99.90;;;;;;4968683;28;20437;-61
2023/09/15 09:05:31;;;;;;;14.87;10.47;;;18.60;99.90;;;;;;4966348;28;20894;-61
2023/09/15 09:07:59;;;;;;;14.73;9.60;;;18.70;99.90;;;;;;4967284;28;20271;-60
2023/09/15 09:10:25;;;;;;;10.80;8.80;;;18.70;99.90;;;;;;4963224;28;20456;-60
2023/09/15 09:12:51;;;;;;;12.07;8.63;;;18.80;99.90;;;;;;4964829;28;20481;-61
2023/09/15 09:15:17;;;;;;;14.63;9.80;;;18.90;99.90;;;;;;4966647;28;20467;-61
2023/09/15 09:17:43;;;;;;;13.27;8.90;;;19.00;99.90;;;;;;4967672;28;22222;-61
2023/09/15 09:20:26;;;;;;;14.10;9.30;;;19.10;99.90;;;;;;4971785;28;20213;-61
2023/09/15 09:22:52;;;;;;;15.20;9.53;;;19.20;99.90;;;;;;4966553;28;20434;-61
2023/09/15 09:25:33;;;;;;;13.17;9.30;;;19.20;99.90;;;;;;4966868;28;20465;-61
2023/09/15 09:27:59;;;;;;;17.00;9.27;;;19.30;99.90;;;;;;4982989;28;20492;-61
2023/09/15 09:30:29;;;;;;;17.63;9.57;;;19.40;99.90;;;;;;4973196;28;20448;-60
2023/09/15 09:32:58;;;;;;;19.07;9.47;;;19.40;99.90;;;;;;4969557;28;20441;-61
2023/09/15 09:35:25;;;;;;;15.23;9.20;;;19.40;99.90;;;;;;4967073;28;20435;-61
2023/09/15 09:37:53;;;;;;;11.50;8.00;;;19.30;99.90;;;;;;4971210;28;20468;-61
2023/09/15 09:40:20;;;;;;;16.50;9.20;;;19.40;99.90;;;;;;4974367;28;20463;-60
2023/09/15 09:42:48;;;;;;;20.97;9.97;;;19.60;99.90;;;;;;4967427;28;20491;-61
2023/09/15 09:45:14;;;;;;;15.30;8.80;;;19.70;99.90;;;;;;4972501;28;20885;-61
2023/09/15 09:47:40;;;;;;;16.53;9.87;;;19.90;99.90;;;;;;4975058;28;20927;-61
2023/09/15 09:50:10;;;;;;;15.37;10.20;;;20.00;99.90;;;;;;4971777;28;21057;-62
2023/09/15 09:52:37;;;;;;;15.67;10.17;;;20.20;98.40;;;;;;4966692;28;20457;-60
2023/09/15 09:55:09;;;;;;;12.57;10.07;;;20.30;97.50;;;;;;4970155;28;20470;-61
2023/09/15 09:57:37;;;;;;;15.70;9.57;;;20.50;96.90;;;;;;4970443;28;20495;-61
2023/09/15 10:00:04;;;;;;;12.40;9.60;;;20.70;96.70;;;;;;4970538;28;20942;-60
2023/09/15 10:02:30;;;;;;;17.97;10.30;;;20.80;91.90;;;;;;4968948;28;20551;-61
2023/09/15 10:04:56;;;;;;;15.20;9.47;;;20.80;94.50;;;;;;4970794;28;20548;-61
2023/09/15 10:07:22;;;;;;;11.33;9.53;;;20.90;95.00;;;;;;4968536;28;20437;-61
2023/09/15 10:09:48;;;;;;;13.43;9.07;;;21.00;93.20;;;;;;4965209;28;20174;-61
2023/09/15 10:12:14;;;;;;;14.00;10.00;;;21.10;92.00;;;;;;4968490;28;20194;-61
2023/09/15 10:14:40;;;;;;;14.70;10.13;;;21.10;91.40;;;;;;4971029;28;20444;-61
2023/09/15 10:17:06;;;;;;;18.20;11.23;;;21.20;90.40;;;;;;4960545;28;20448;-61
2023/09/15 10:19:33;;;;;;;15.17;10.40;;;21.10;84.40;;;;;;4965509;28;20436;-60
2023/09/15 10:22:00;;;;;;;14.50;9.47;;;21.00;89.40;;;;;;4970837;28;20464;-61
2023/09/15 10:24:27;;;;;;;14.03;10.33;;;21.00;91.60;;;;;;4966200;28;20457;-57
2023/09/15 10:26:53;;;;;;;12.30;9.83;;;21.10;87.80;;;;;;4961861;28;20422;-57
2023/09/15 10:29:19;;;;;;;13.00;9.00;;;21.20;91.80;;;;;;4966350;28;20596;-62
2023/09/15 10:31:45;;;;;;;14.40;11.10;;;21.30;91.20;;;;;;4966108;28;20537;-61
2023/09/15 10:34:11;;;;;;;15.27;10.67;;;21.40;88.40;;;;;;4967374;28;20449;-62
2023/09/15 10:36:41;;;;;;;16.87;11.47;;;21.50;86.60;;;;;;4963699;28;20422;-61
2023/09/15 10:39:13;;;;;;;13.07;9.80;;;21.60;81.40;;;;;;4969061;28;20429;-61
2023/09/15 10:41:39;;;;;;;15.37;10.37;;;21.60;83.80;;;;;;4962887;28;20544;-63
2023/09/15 10:44:05;;;;;;;13.90;10.60;;;21.70;83.00;;;;;;4970519;28;20551;-61
2023/09/15 10:46:41;;;;;;;11.07;9.10;;;21.70;82.10;;;;;;4972779;28;20194;-62
2023/09/15 10:49:21;;;;;;;12.90;9.13;;;21.80;83.50;;;;;;4969042;28;20723;-61
2023/09/15 10:52:05;;;;;;;12.67;10.03;;;21.90;81.60;;;;;;4973273;28;20858;-61
2023/09/15 10:54:32;;;;;;;14.73;9.60;;;21.90;79.20;;;;;;4974765;28;20492;-61
2023/09/15 10:56:59;;;;;;;13.10;8.40;;;22.00;79.10;;;;;;4973864;28;20437;-61
2023/09/15 10:59:28;;;;;;;14.50;9.87;;;22.10;79.20;;;;;;4969570;28;20455;-61
2023/09/15 11:01:55;;;;;;;16.43;9.30;;;22.30;73.50;;;;;;4971197;28;21175;-61
2023/09/15 11:04:21;;;;;;;13.57;9.20;;;22.30;73.90;;;;;;4967038;28;20524;-62
2023/09/15 11:06:51;;;;;;;11.37;9.43;;;22.30;73.00;;;;;;4971545;28;20413;-61
2023/09/15 11:09:17;;;;;;;11.80;8.77;;;22.30;72.60;;;;;;4972690;28;20226;-62
2023/09/15 11:11:50;;;;;;;11.30;8.37;;;22.40;75.10;;;;;;4957554;28;20468;-61
2023/09/15 11:14:17;;;;;;;10.97;8.40;;;22.60;75.80;;;;;;4967054;28;20433;-62
2023/09/15 11:16:45;;;;;;;29.17;9.57;;;22.70;74.80;;;;;;4967617;28;20425;-61
2023/09/15 11:19:14;;;;;;;13.80;8.77;;;22.60;73.10;;;;;;4970337;28;20484;-62
2023/09/15 11:21:40;;;;;;;13.30;8.33;;;22.50;72.90;;;;;;4964884;28;20493;-61
2023/09/15 11:24:10;;;;;;;10.10;8.00;;;22.40;74.10;;;;;;4962710;28;20460;-61
2023/09/15 11:26:50;;;;;;;10.20;7.47;;;22.50;77.30;;;;;;4972228;28;20978;-62
2023/09/15 11:29:16;;;;;;;12.27;9.27;;;22.70;75.10;;;;;;4971679;28;20503;-60
2023/09/15 11:31:44;;;;;;;10.27;7.90;;;22.90;70.00;;;;;;4963751;28;20507;-61
2023/09/15 11:34:16;;;;;;;10.63;8.37;;;23.10;71.10;;;;;;4970355;28;20802;-58
2023/09/15 11:36:42;;;;;;;10.80;8.17;;;23.30;70.90;;;;;;4969335;28;21027;-58
2023/09/15 11:39:12;;;;;;;14.07;8.30;;;23.50;66.60;;;;;;4966216;28;20428;-59
2023/09/15 11:41:39;;;;;;;15.50;9.20;;;23.60;68.10;;;;;;4968900;28;20873;-58
2023/09/15 11:44:08;;;;;;;11.83;8.60;;;23.70;65.20;;;;;;4966702;28;20469;-59
2023/09/15 11:46:36;;;;;;;12.40;8.00;;;23.80;64.10;;;;;;4967606;28;20426;-59
2023/09/15 11:49:03;;;;;;;15.50;8.60;;;23.90;65.90;;;;;;4969173;28;20536;-59
2023/09/15 11:51:29;;;;;;;22.00;8.83;;;24.00;65.20;;;;;;4983156;28;20458;-58
2023/09/15 11:53:58;;;;;;;10.70;7.60;;;24.20;65.00;;;;;;4968788;28;20433;-58
2023/09/15 11:56:25;;;;;;;20.00;8.43;;;24.30;62.50;;;;;;4964094;28;20456;-59
2023/09/15 11:58:50;;;;;;;10.93;7.23;;;24.40;63.30;;;;;;4967535;28;20510;-59
2023/09/15 12:01:21;;;;;;;16.77;8.53;;;24.60;63.10;;;;;;4968911;28;20516;-60
2023/09/15 12:03:48;;;;;;;9.80;7.50;;;24.70;63.00;;;;;;4970135;28;20182;-59
2023/09/15 12:06:18;;;;;;;11.00;8.30;;;24.80;62.60;;;;;;4970374;28;20429;-60
2023/09/15 12:08:49;;;;;;;10.07;8.23;;;24.90;61.60;;;;;;4967770;28;21091;-59
2023/09/15 12:11:15;;;;;;;10.90;8.23;;;24.80;60.10;;;;;;4963398;28;20449;-59
2023/09/15 12:13:41;;;;;;;9.13;7.10;;;24.70;61.90;;;;;;4965584;28;20528;-60
2023/09/15 12:16:15;;;;;;;10.33;8.20;;;24.80;61.20;;;;;;4967929;28;20464;-59
2023/09/15 12:18:44;;;;;;;8.00;6.70;;;24.80;61.10;;;;;;4971384;28;20433;-59
2023/09/15 12:21:13;;;;;;;13.77;7.40;;;24.90;61.60;;;;;;4972637;28;20548;-60
2023/09/15 12:23:39;;;;;;;9.73;8.40;;;25.10;61.80;;;;;;4971920;28;20429;-60
2023/09/15 12:26:05;;;;;;;10.80;8.33;;;25.20;59.50;;;;;;4966671;28;20464;-59
2023/09/15 12:28:32;;;;;;;9.63;8.20;;;25.20;58.30;;;;;;4970799;28;20700;-59
2023/09/15 12:30:59;;;;;;;7.63;6.93;;;25.10;58.20;;;;;;4964026;28;20771;-59
2023/09/15 12:33:26;;;;;;;9.27;7.60;;;25.00;58.90;;;;;;4967518;28;21441;-59
2023/09/15 12:35:52;;;;;;;10.33;7.27;;;25.10;59.70;;;;;;4964726;28;20430;-59
2023/09/15 12:38:18;;;;;;;9.53;7.70;;;24.90;59.60;;;;;;4977979;28;20456;-59